createdAt,value
2022-10-17T00:01:58.385Z,19.20
2022-10-17T00:07:00.229Z,19.18
2022-10-17T00:12:02.909Z,19.22
2022-10-17T00:17:05.143Z,19.22
2022-10-17T00:22:07.023Z,19.21
2022-10-17T00:27:08.845Z,19.09
2022-10-17T00:32:10.718Z,19.07
2022-10-17T00:37:12.627Z,19.08
2022-10-17T00:42:14.469Z,19.02
2022-10-17T00:47:21.133Z,18.95
2022-10-17T00:52:27.021Z,18.89
2022-10-17T00:57:31.902Z,18.78
2022-10-17T01:02:33.910Z,18.67
2022-10-17T01:07:37.387Z,18.58
2022-10-17T01:13:07.291Z,18.42
2022-10-17T01:18:32.635Z,18.25
2022-10-17T01:24:00.268Z,18.15
2022-10-17T01:29:10.923Z,18.17
2022-10-17T01:34:36.113Z,18.31
2022-10-17T01:39:52.089Z,18.27
2022-10-17T01:45:12.899Z,18.21
2022-10-17T01:50:24.469Z,18.08
2022-10-17T01:55:33.026Z,18.01
2022-10-17T02:00:37.884Z,17.96
2022-10-17T02:05:42.587Z,17.90
2022-10-17T02:10:50.685Z,17.84
2022-10-17T02:16:17.834Z,17.79
2022-10-17T02:21:48.631Z,17.83
2022-10-17T02:27:04.270Z,17.88
2022-10-17T02:32:11.825Z,17.91
2022-10-17T02:37:17.628Z,17.91
2022-10-17T02:42:21.820Z,17.92
2022-10-17T02:47:39.926Z,17.91
2022-10-17T02:53:10.936Z,17.87
2022-10-17T02:58:20.793Z,17.77
2022-10-17T03:03:26.916Z,17.60
2022-10-17T03:08:29.343Z,17.52
2022-10-17T03:13:33.009Z,17.42
2022-10-17T03:18:36.977Z,17.32
2022-10-17T03:23:39.642Z,17.24
2022-10-17T03:28:42.460Z,17.20
2022-10-17T03:33:44.396Z,17.27
2022-10-17T03:38:46.569Z,17.36
2022-10-17T03:43:48.525Z,17.38
2022-10-17T03:48:50.590Z,17.36
2022-10-17T03:53:52.654Z,17.36
2022-10-17T03:58:55.791Z,17.40
2022-10-17T04:03:58.106Z,17.44
2022-10-17T04:09:05.431Z,17.49
2022-10-17T04:14:17.476Z,17.48
2022-10-17T04:19:19.437Z,17.46
2022-10-17T04:24:22.662Z,17.52
2022-10-17T04:29:30.592Z,17.55
2022-10-17T04:34:52.658Z,17.57
2022-10-17T04:39:57.116Z,17.59
2022-10-17T04:44:59.246Z,17.53
2022-10-17T04:50:02.291Z,17.52
2022-10-17T04:55:07.442Z,17.51
2022-10-17T05:00:10.750Z,17.48
2022-10-17T05:05:26.864Z,17.40
2022-10-17T05:10:30.159Z,17.36
2022-10-17T05:15:33.771Z,17.32
2022-10-17T05:20:36.816Z,17.29
2022-10-17T05:25:38.802Z,17.28
2022-10-17T05:30:40.723Z,17.29
2022-10-17T05:35:44.063Z,17.29
2022-10-17T05:40:46.031Z,17.26
2022-10-17T05:45:47.947Z,17.27
2022-10-17T05:51:00.140Z,17.34
2022-10-17T05:56:04.341Z,17.34
2022-10-17T06:01:10.659Z,17.38
2022-10-17T06:06:15.898Z,17.46
2022-10-17T06:11:19.540Z,17.57
2022-10-17T06:16:21.658Z,17.65
2022-10-17T06:21:26.059Z,17.75
2022-10-17T06:26:35.070Z,17.82
2022-10-17T06:31:37.657Z,17.89
2022-10-17T06:36:40.234Z,17.98
2022-10-17T06:41:44.670Z,18.07
2022-10-17T06:46:46.769Z,18.24
2022-10-17T06:51:51.919Z,18.41
2022-10-17T06:56:58.238Z,18.64
2022-10-17T07:02:18.817Z,18.96
2022-10-17T07:07:20.856Z,19.30
2022-10-17T07:12:23.427Z,19.58
2022-10-17T07:17:25.459Z,19.89
2022-10-17T07:22:28.010Z,20.10
2022-10-17T07:27:33.088Z,20.35
2022-10-17T07:32:35.010Z,20.56
2022-10-17T07:37:38.605Z,20.69
2022-10-17T07:42:40.690Z,20.92
2022-10-17T07:47:43.124Z,21.07
2022-10-17T07:52:46.301Z,21.25
2022-10-17T07:57:48.074Z,21.50
2022-10-17T08:02:49.936Z,21.74
2022-10-17T08:07:51.864Z,22.02
2022-10-17T08:12:56.247Z,22.28
2022-10-17T08:17:58.747Z,22.55
2022-10-17T08:23:00.468Z,22.77
2022-10-17T08:28:02.276Z,22.92
2022-10-17T08:33:04.175Z,23.09
2022-10-17T08:38:09.957Z,23.25
2022-10-17T08:43:35.377Z,23.47
2022-10-17T08:48:45.614Z,23.55
2022-10-17T08:54:08.528Z,23.69
2022-10-17T08:59:17.057Z,23.95
2022-10-17T09:04:34.104Z,24.17
2022-10-17T09:10:01.939Z,24.29
2022-10-17T09:15:35.657Z,24.33
2022-10-17T09:20:45.051Z,24.43
2022-10-17T09:25:52.631Z,24.67
2022-10-17T09:31:25.077Z,24.93
2022-10-17T09:36:34.611Z,25.06
2022-10-17T09:41:46.116Z,25.14
2022-10-17T09:47:10.159Z,25.20
2022-10-17T09:52:28.877Z,25.23
2022-10-17T09:57:58.306Z,25.40
2022-10-17T10:03:27.347Z,25.47
2022-10-17T10:08:35.576Z,25.53
2022-10-17T10:13:37.457Z,25.45
2022-10-17T10:18:39.413Z,25.24
2022-10-17T10:23:43.982Z,25.32
2022-10-17T10:28:54.685Z,25.43
2022-10-17T10:33:57.727Z,25.54
2022-10-17T10:39:02.568Z,25.73
2022-10-17T10:44:06.612Z,25.91
2022-10-17T10:49:30.033Z,26.22
2022-10-17T10:54:41.653Z,26.37
2022-10-17T10:59:49.013Z,26.60
2022-10-17T11:05:34.842Z,26.77
2022-10-17T11:11:04.667Z,26.98
2022-10-17T11:16:15.312Z,27.09
2022-10-17T11:21:30.437Z,27.24
2022-10-17T11:26:38.614Z,27.30
2022-10-17T11:31:47.492Z,27.30
2022-10-17T11:36:53.602Z,27.34
2022-10-17T11:42:04.369Z,27.36
2022-10-17T11:47:45.685Z,27.57
2022-10-17T11:53:10.585Z,27.77
2022-10-17T11:58:30.902Z,27.92
2022-10-17T12:03:51.345Z,27.99
2022-10-17T12:09:26.636Z,28.10
2022-10-17T12:14:38.939Z,28.24
2022-10-17T12:19:40.767Z,28.30
2022-10-17T12:24:45.501Z,28.29
2022-10-17T12:29:48.449Z,28.29
2022-10-17T12:34:55.048Z,28.20
2022-10-17T12:39:56.872Z,28.14
2022-10-17T12:44:58.773Z,28.17
2022-10-17T12:50:00.572Z,28.33
2022-10-17T12:55:12.490Z,28.42
2022-10-17T13:00:23.378Z,28.48
2022-10-17T13:05:30.780Z,28.66
2022-10-17T13:10:39.651Z,28.74
2022-10-17T13:15:52.054Z,28.71
2022-10-17T13:21:07.659Z,28.64
2022-10-17T13:26:20.599Z,29.46
2022-10-17T13:31:35.368Z,31.45
2022-10-17T13:36:37.267Z,33.06
2022-10-17T13:41:40.593Z,33.75
2022-10-17T13:46:44.011Z,34.29
2022-10-17T13:51:48.787Z,34.64
2022-10-17T13:56:57.581Z,34.83
2022-10-17T14:02:01.946Z,34.85
2022-10-17T14:07:03.781Z,34.76
2022-10-17T14:12:16.627Z,33.64
2022-10-17T14:17:25.379Z,32.25
2022-10-17T14:22:29.043Z,30.66
2022-10-17T14:27:52.867Z,29.43
2022-10-17T14:33:01.377Z,28.63
2022-10-17T14:38:06.063Z,28.00
2022-10-17T14:43:20.864Z,27.30
2022-10-17T14:48:25.224Z,26.64
2022-10-17T14:53:28.522Z,26.03
2022-10-17T14:58:34.585Z,25.61
2022-10-17T15:03:36.466Z,25.55
2022-10-17T15:08:38.352Z,25.53
2022-10-17T15:13:45.389Z,25.49
2022-10-17T15:18:48.568Z,25.47
2022-10-17T15:23:50.963Z,25.46
2022-10-17T15:28:53.913Z,25.36
2022-10-17T15:33:55.824Z,25.18
2022-10-17T15:38:59.928Z,25.03
2022-10-17T15:44:01.760Z,24.73
2022-10-17T15:49:10.085Z,24.57
2022-10-17T15:59:18.020Z,24.19
2022-10-17T16:04:19.922Z,23.90
2022-10-17T16:09:21.837Z,23.66
2022-10-17T16:14:23.683Z,23.52
2022-10-17T16:19:30.138Z,23.38
2022-10-17T16:24:32.476Z,23.35
2022-10-17T16:29:34.368Z,23.32
2022-10-17T16:34:36.156Z,23.31
2022-10-17T16:39:37.963Z,23.25
2022-10-17T16:44:39.809Z,23.14
2022-10-17T16:49:44.450Z,23.01
2022-10-17T16:54:47.299Z,22.90
2022-10-17T16:59:49.103Z,22.84
2022-10-17T17:04:50.977Z,22.70
2022-10-17T17:09:56.309Z,22.62
2022-10-17T17:14:58.104Z,22.55
2022-10-17T17:19:59.976Z,22.50
2022-10-17T17:25:01.774Z,22.43
2022-10-17T17:30:03.771Z,22.36
2022-10-17T17:35:05.904Z,22.16
2022-10-17T17:40:08.493Z,21.99
2022-10-17T17:45:10.819Z,21.74
2022-10-17T17:50:12.764Z,21.62
2022-10-17T17:55:14.750Z,21.37
2022-10-17T18:00:16.803Z,21.26
2022-10-17T18:05:18.640Z,21.11
2022-10-17T18:10:20.577Z,20.99
2022-10-17T18:15:22.423Z,20.93
2022-10-17T18:20:24.597Z,20.96
2022-10-17T18:25:26.791Z,20.99
2022-10-17T18:30:31.029Z,20.98
2022-10-17T18:35:36.166Z,20.90
2022-10-17T18:40:38.061Z,20.77
2022-10-17T18:45:39.899Z,20.64
2022-10-17T18:50:41.962Z,20.57
2022-10-17T18:55:43.866Z,20.51
2022-10-17T19:00:46.369Z,20.53
2022-10-17T19:05:48.204Z,20.50
2022-10-17T19:10:50.882Z,20.54
2022-10-17T19:15:52.685Z,20.59
2022-10-17T19:20:54.722Z,20.65
2022-10-17T19:26:11.602Z,20.74
2022-10-17T19:31:16.987Z,20.80
2022-10-17T19:36:22.045Z,20.77
2022-10-17T19:41:24.444Z,20.77
2022-10-17T19:46:28.369Z,20.72
2022-10-17T19:51:31.050Z,20.71
2022-10-17T19:56:38.275Z,20.70
2022-10-17T20:01:40.716Z,20.65
2022-10-17T20:06:42.806Z,20.67
2022-10-17T20:11:44.847Z,20.66
2022-10-17T20:16:52.226Z,20.56
2022-10-17T20:21:54.401Z,20.40
2022-10-17T20:26:56.370Z,20.31
2022-10-17T20:31:58.640Z,20.18
2022-10-17T20:37:01.653Z,20.01
2022-10-17T20:42:03.782Z,19.88
2022-10-17T20:47:11.965Z,19.81
2022-10-17T20:52:18.211Z,19.85
2022-10-17T20:57:20.100Z,19.84
2022-10-17T21:02:21.885Z,19.79
2022-10-17T21:07:25.275Z,19.84
2022-10-17T21:12:36.830Z,19.89
2022-10-17T21:17:45.189Z,19.89
2022-10-17T21:22:46.984Z,19.88
2022-10-17T21:27:52.641Z,19.78
2022-10-17T21:32:55.856Z,19.71
2022-10-17T21:37:57.789Z,19.66
2022-10-17T21:42:59.582Z,19.54
2022-10-17T21:48:12.648Z,19.40
2022-10-17T21:53:14.829Z,19.30
2022-10-17T21:58:16.610Z,19.23
2022-10-17T22:03:18.425Z,19.28
2022-10-17T22:08:20.317Z,19.31
2022-10-17T22:13:22.107Z,19.29
2022-10-17T22:18:23.949Z,19.25
2022-10-17T22:23:26.082Z,19.27
2022-10-17T22:28:28.199Z,19.25
2022-10-17T22:33:32.890Z,19.20
2022-10-17T22:38:34.882Z,19.18
2022-10-17T22:43:36.737Z,19.16
2022-10-17T22:48:38.798Z,19.02
2022-10-17T22:53:40.618Z,18.82
2022-10-17T22:58:42.762Z,18.93
2022-10-17T23:03:45.148Z,19.26
2022-10-17T23:08:47.328Z,19.57
2022-10-17T23:13:49.163Z,19.81
2022-10-17T23:18:50.963Z,19.98
2022-10-17T23:23:52.839Z,19.74
2022-10-17T23:28:54.995Z,20.03
2022-10-17T23:33:56.832Z,20.00
2022-10-17T23:38:58.841Z,19.95
2022-10-17T23:44:00.652Z,19.85
2022-10-17T23:49:02.446Z,19.78
2022-10-17T23:54:04.858Z,19.72
2022-10-17T23:59:06.645Z,19.64
